עמוד ראשי
METAR-TAF:

METAR-TAF

שדות תעופה :

דרי, צפון אירלנד

קו רוחב: 55-03N, קו אורך: 007-09W, גובה: 9מטר

תצפית מזג אוויר נוכחית

הדו"ח נערך לפני 3 שעות ו 50דקות, בשעה 20:20 UTC
רוח 4קשר מכיוון מזרח, משתנה בין צפון/צפון-מזרח ו מזרח/דרום-מזרח
טמפרטורת 18 צלסיוס
לחות 73%
לחץ 1012 hPa
ראות 10 קילומטר או יותר
מעט עננים בגובה 4500רגל

METAR: EGAE 202020Z 08004KT 030V110 9999 FEW045 18/13 Q1012

זמן: 01:10 (00:10 UTC)

תחזית

הדו"ח נערך לפני 7 שעות ו 10דקות, בשעה 17:00 UTC
תחזית בתוקף מ 20 ב 18 UTC עד 20 ב 21 UTC
רוח 9קשר מכיוון מזרח/דרום-מזרח
ראות 10 קילומטר או יותר
מעט עננים בגובה 2000רגל

TAF: EGAE 201700Z 2018/2021 12009KT 9999 FEW020

תצפיות ותחזיות מזג אוויר לגבי יותר מ- 4,000 שדות תעופה ברחבי העולם. דוחות METAR ו- TAF.

התחנות הזמינות מסומנות בנקודות צהובות ואדומות על גבי המפה.

העבר את העכבר לנקודה הצבעונית על מנת לראות את שם התחנה.

לאחר מכן, לחץ כדי לראות את תוכן ואת תחזיות מזג האוויר.

כדי לשנות את המפה: לחץ על הכפתורים הירוקים עם הפלוס השחור כדי להתקרב; על הכפתור הירוק עם המקף כדי להתרחק; או בחיצים הירוקים למפות סמוכות.


METAR-TAF: